Portada
METAR-TAF:

METAR-TAF

Aeroports :

Chinandega, Nicaragua

latitud: 12-38N, longitud: 087-08W, altitud: 53 m

Observació

L'informe es va fer fa 30 minuts, a les 17:00 UTC
Vent 4 kt del Nord
Temperatura 32°C
Humitat 59%
Pressió 1013 hPa
Visibilitat 10 km o més
Escasses núvols a una alçada de 2500 ft
Cel ennuvolat a una alçada de 9000 ft

METAR: MNCH 081700Z 36004KT 9999 FEW025 BKN090 32/23 Q1013

Hora: 11:30 (17:30 UTC)


TAF: manca

Observacions i pronòstics meteorològics de més de 4000 aeroports (METAR i TAF).

Les estacions disponibles són els punts grocs i vermells al mapa.

Posi el ratolí al punt desitjat per veure el nom de l'estació.

Feu clic per veure les observacions i els pronòstics meteorològics.

Per canviar el mapa: feu clic els botons verds amb una creu de color negre per apropar; al botó verd amb un guió per allunyar la imatge; o en les fletxes verdes per a mapes adjacents.


METAR-TAF: